Time;durP1;ratioP1;P1;durP2;ratioP2;P2;SDS_P1;SDS_P2;PMS_P1;PMS_P2;Temp;Humidity;BMP_temperature;BMP_pressure;BME280_temperature;BME280_humidity;BME280_pressure;Samples;Min_cycle;Max_cycle;Signal;HPM_P1;HPM_P2
2022/08/18 00:02:12;;;;;;;6.95;6.07;;;;;;;;;;4992136;28;20414;-78
2022/08/18 00:04:39;;;;;;;8.90;6.50;;;;;;;;;;4991562;28;20041;-78
2022/08/18 00:07:05;;;;;;;8.82;6.40;;;;;;;;;;4988792;28;20632;-78
2022/08/18 00:09:32;;;;;;;8.80;6.85;;;;;;;;;;4990601;28;20477;-78
2022/08/18 00:12:00;;;;;;;8.00;6.78;;;;;;;;;;4987767;28;20093;-78
2022/08/18 00:14:26;;;;;;;12.05;6.45;;;;;;;;;;4987443;28;20047;-78
2022/08/18 00:16:53;;;;;;;9.10;6.68;;;;;;;;;;4990582;28;20039;-78
2022/08/18 00:19:19;;;;;;;9.43;6.65;;;;;;;;;;4992663;28;20661;-78
2022/08/18 00:21:45;;;;;;;9.07;6.28;;;;;;;;;;4991534;28;20046;-75
2022/08/18 00:24:11;;;;;;;8.57;6.18;;;;;;;;;;4989614;28;20093;-75
2022/08/18 00:26:37;;;;;;;8.55;6.30;;;;;;;;;;4984016;28;20050;-75
2022/08/18 00:29:03;;;;;;;11.68;6.05;;;;;;;;;;4993615;28;20073;-75
2022/08/18 00:31:30;;;;;;;8.38;6.05;;;;;;;;;;5005186;28;20050;-76
2022/08/18 00:33:56;;;;;;;9.23;6.45;;;;;;;;;;4990358;28;20101;-75
2022/08/18 00:36:22;;;;;;;8.95;6.25;;;;;;;;;;4990032;28;20118;-75
2022/08/18 00:38:48;;;;;;;8.90;6.25;;;;;;;;;;4990191;28;20212;-75
2022/08/18 00:41:14;;;;;;;8.77;6.13;;;;;;;;;;4992812;28;20130;-75
2022/08/18 00:43:46;;;;;;;8.45;6.10;;;;;;;;;;4992423;28;20046;-75
2022/08/18 00:46:14;;;;;;;8.40;6.50;;;;;;;;;;5001093;28;20038;-75
2022/08/18 00:48:41;;;;;;;10.15;5.95;;;;;;;;;;4988819;28;20547;-75
2022/08/18 00:51:12;;;;;;;8.35;6.80;;;;;;;;;;4992750;28;20172;-75
2022/08/18 00:53:44;;;;;;;8.68;6.32;;;;;;;;;;4998780;28;20065;-75
2022/08/18 00:56:16;;;;;;;11.53;7.10;;;;;;;;;;5001909;28;20046;-75
2022/08/18 00:58:45;;;;;;;8.75;6.40;;;;;;;;;;4985575;28;20646;-75
2022/08/18 01:01:13;;;;;;;9.18;6.40;;;;;;;;;;4989893;28;20050;-75
2022/08/18 01:03:39;;;;;;;9.27;6.38;;;;;;;;;;4980014;28;20133;-75
2022/08/18 01:06:17;;;;;;;10.73;6.45;;;;;;;;;;4985481;28;20061;-75
2022/08/18 01:08:43;;;;;;;10.68;6.78;;;;;;;;;;5003059;28;20506;-75
2022/08/18 01:11:09;;;;;;;9.50;6.22;;;;;;;;;;4984652;28;20058;-75
2022/08/18 01:13:37;;;;;;;10.32;6.43;;;;;;;;;;4985517;28;20046;-75
2022/08/18 01:21:49;;;;;;;8.52;6.03;;;;;;;;;;4988299;28;20088;-76
2022/08/18 01:21:52;;;;;;;7.57;5.65;;;;;;;;;;4989737;28;20038;-76
2022/08/18 01:25:58;;;;;;;7.88;6.35;;;;;;;;;;4987286;28;20051;-75
2022/08/18 01:27:11;;;;;;;9.38;5.82;;;;;;;;;;4990431;28;20046;-75
2022/08/18 01:29:37;;;;;;;8.90;6.40;;;;;;;;;;4988360;28;20049;-75
2022/08/18 01:32:03;;;;;;;10.23;6.05;;;;;;;;;;4988042;28;20044;-75
2022/08/18 01:34:29;;;;;;;7.85;6.55;;;;;;;;;;4994675;28;20503;-75
2022/08/18 01:36:55;;;;;;;8.35;6.65;;;;;;;;;;4995140;28;20039;-75
2022/08/18 01:39:22;;;;;;;8.13;6.30;;;;;;;;;;4991662;28;20058;-75
2022/08/18 01:41:48;;;;;;;9.32;6.68;;;;;;;;;;4994036;28;20057;-75
2022/08/18 01:44:14;;;;;;;8.75;6.50;;;;;;;;;;4991652;28;20043;-75
2022/08/18 01:46:40;;;;;;;7.68;6.07;;;;;;;;;;4975590;28;20087;-75
2022/08/18 01:49:07;;;;;;;6.70;6.10;;;;;;;;;;4988576;28;20042;-76
2022/08/18 01:51:33;;;;;;;7.43;5.90;;;;;;;;;;4999700;28;20052;-76
2022/08/18 01:54:00;;;;;;;7.53;5.82;;;;;;;;;;4982244;28;20534;-75
2022/08/18 01:56:27;;;;;;;5.80;5.20;;;;;;;;;;4997518;28;20049;-75
2022/08/18 01:58:53;;;;;;;7.13;5.45;;;;;;;;;;4990547;28;20069;-75
2022/08/18 02:01:20;;;;;;;6.25;5.65;;;;;;;;;;5000082;28;20164;-76
2022/08/18 02:03:49;;;;;;;7.35;5.90;;;;;;;;;;4995132;28;20041;-76
2022/08/18 02:06:18;;;;;;;6.00;5.50;;;;;;;;;;4987355;28;20178;-75
2022/08/18 02:08:45;;;;;;;8.05;5.43;;;;;;;;;;4998563;28;20077;-76
2022/08/18 02:11:11;;;;;;;6.32;5.70;;;;;;;;;;4983801;28;20050;-76
2022/08/18 02:13:37;;;;;;;6.07;5.47;;;;;;;;;;4993169;28;20505;-76
2022/08/18 02:16:04;;;;;;;6.65;5.60;;;;;;;;;;4985078;28;20054;-75
2022/08/18 02:18:31;;;;;;;7.93;6.57;;;;;;;;;;5010012;28;20104;-76
2022/08/18 02:20:58;;;;;;;8.57;6.18;;;;;;;;;;5003558;28;20555;-75
2022/08/18 02:23:24;;;;;;;8.32;6.28;;;;;;;;;;4985789;28;20408;-76
2022/08/18 02:25:50;;;;;;;8.65;6.07;;;;;;;;;;4990066;28;20055;-75
2022/08/18 02:28:16;;;;;;;8.23;6.05;;;;;;;;;;5000589;28;20050;-76
2022/08/18 02:30:43;;;;;;;11.10;6.10;;;;;;;;;;4990286;28;20045;-76
2022/08/18 02:33:10;;;;;;;7.40;6.00;;;;;;;;;;4996749;28;20049;-76
2022/08/18 02:35:37;;;;;;;6.50;5.90;;;;;;;;;;4984147;28;20107;-75
2022/08/18 02:38:04;;;;;;;6.78;6.05;;;;;;;;;;4991608;28;20517;-75
2022/08/18 02:40:32;;;;;;;8.27;6.30;;;;;;;;;;4995739;28;20058;-76
2022/08/18 02:42:58;;;;;;;6.63;5.97;;;;;;;;;;4989228;28;20121;-76
2022/08/18 02:45:24;;;;;;;7.30;5.75;;;;;;;;;;4994615;28;20627;-75
2022/08/18 02:47:54;;;;;;;6.80;5.85;;;;;;;;;;5003049;28;20050;-75
2022/08/18 02:50:21;;;;;;;8.63;5.22;;;;;;;;;;4994222;28;20042;-75
2022/08/18 02:52:47;;;;;;;7.95;5.45;;;;;;;;;;4979596;28;20079;-76
2022/08/18 02:55:14;;;;;;;6.85;5.15;;;;;;;;;;4983419;28;20051;-75
2022/08/18 02:57:41;;;;;;;8.00;5.25;;;;;;;;;;4990220;28;20057;-76
2022/08/18 03:00:10;;;;;;;9.70;5.53;;;;;;;;;;4999190;28;20413;-76
2022/08/18 03:02:37;;;;;;;7.40;5.35;;;;;;;;;;4985511;28;20057;-76
2022/08/18 03:05:03;;;;;;;8.55;5.50;;;;;;;;;;4998243;28;20082;-76
2022/08/18 03:07:29;;;;;;;7.45;5.55;;;;;;;;;;5020652;28;20401;-77
2022/08/18 03:09:55;;;;;;;9.75;4.63;;;;;;;;;;4997380;28;20048;-76
2022/08/18 03:12:21;;;;;;;7.85;5.28;;;;;;;;;;4984648;28;20050;-76
2022/08/18 03:14:48;;;;;;;6.30;5.05;;;;;;;;;;4990072;28;20427;-76
2022/08/18 03:17:14;;;;;;;7.28;5.07;;;;;;;;;;4990607;28;20045;-76
2022/08/18 03:19:43;;;;;;;9.40;5.10;;;;;;;;;;5005127;28;20049;-76
2022/08/18 03:22:09;;;;;;;5.50;4.80;;;;;;;;;;4987913;28;20112;-76
2022/08/18 03:24:35;;;;;;;5.95;5.10;;;;;;;;;;4987853;28;20038;-76
2022/08/18 03:27:04;;;;;;;5.38;4.88;;;;;;;;;;4994811;28;20058;-76
2022/08/18 03:29:30;;;;;;;7.10;4.90;;;;;;;;;;4993147;28;20053;-76
2022/08/18 03:31:56;;;;;;;6.05;4.85;;;;;;;;;;5006827;28;20121;-77
2022/08/18 03:34:22;;;;;;;6.38;4.50;;;;;;;;;;4997918;28;20423;-76
2022/08/18 03:36:50;;;;;;;7.70;4.70;;;;;;;;;;4993087;28;20078;-76
2022/08/18 03:39:16;;;;;;;7.03;4.82;;;;;;;;;;5000284;28;20093;-76
2022/08/18 03:41:43;;;;;;;7.93;4.88;;;;;;;;;;4998519;28;20049;-76
2022/08/18 03:44:10;;;;;;;15.00;5.50;;;;;;;;;;4998525;28;20050;-76
2022/08/18 03:46:36;;;;;;;7.70;5.20;;;;;;;;;;4995398;28;20561;-76
2022/08/18 03:49:02;;;;;;;7.78;5.20;;;;;;;;;;4989871;28;20046;-77
2022/08/18 03:51:33;;;;;;;9.52;5.63;;;;;;;;;;5002082;28;20053;-76
2022/08/18 03:54:02;;;;;;;8.10;4.88;;;;;;;;;;4992035;28;20582;-76
2022/08/18 03:56:31;;;;;;;6.15;4.90;;;;;;;;;;4991293;28;20042;-76
2022/08/18 03:59:00;;;;;;;6.97;4.93;;;;;;;;;;4979530;28;20066;-76
2022/08/18 04:01:27;;;;;;;10.05;4.53;;;;;;;;;;4993438;28;20051;-76
2022/08/18 04:03:55;;;;;;;7.55;4.82;;;;;;;;;;4994813;28;20149;-77
2022/08/18 04:06:26;;;;;;;6.97;5.05;;;;;;;;;;4993732;28;20112;-76
2022/08/18 04:08:53;;;;;;;7.90;5.07;;;;;;;;;;4991818;28;20089;-76
2022/08/18 04:11:19;;;;;;;5.45;4.55;;;;;;;;;;4995562;28;20046;-76
2022/08/18 04:13:45;;;;;;;5.68;5.07;;;;;;;;;;4995136;28;20367;-76
2022/08/18 04:16:11;;;;;;;7.60;5.00;;;;;;;;;;4998843;28;20061;-76
2022/08/18 04:18:37;;;;;;;5.85;4.90;;;;;;;;;;5028460;28;20042;-76
2022/08/18 04:21:06;;;;;;;6.22;4.93;;;;;;;;;;4997779;28;20049;-76
2022/08/18 04:23:33;;;;;;;5.80;5.28;;;;;;;;;;4993566;28;20457;-76
2022/08/18 04:26:00;;;;;;;9.38;5.60;;;;;;;;;;4982567;28;20510;-76
2022/08/18 04:28:27;;;;;;;7.90;5.22;;;;;;;;;;4994609;28;20050;-76
2022/08/18 04:30:53;;;;;;;8.70;5.25;;;;;;;;;;4993593;28;20045;-76
2022/08/18 04:33:20;;;;;;;6.05;4.60;;;;;;;;;;4994514;28;20054;-77
2022/08/18 04:35:46;;;;;;;7.32;4.60;;;;;;;;;;4976841;28;20046;-77
2022/08/18 04:38:13;;;;;;;8.00;4.45;;;;;;;;;;4996327;28;20422;-77
2022/08/18 04:40:40;;;;;;;7.35;4.63;;;;;;;;;;4996707;28;20046;-76
2022/08/18 04:43:10;;;;;;;7.28;4.88;;;;;;;;;;4982817;28;20050;-77
2022/08/18 04:45:38;;;;;;;6.63;4.50;;;;;;;;;;5005140;28;20513;-76
2022/08/18 04:48:05;;;;;;;9.32;4.55;;;;;;;;;;4986089;28;20058;-76
2022/08/18 04:50:31;;;;;;;10.30;4.85;;;;;;;;;;4995757;28;20405;-77
2022/08/18 04:55:52;;;;;;;6.03;4.63;;;;;;;;;;5000652;28;20050;-76
2022/08/18 04:58:18;;;;;;;5.43;3.92;;;;;;;;;;4994662;28;20126;-76
2022/08/18 05:00:45;;;;;;;5.45;4.28;;;;;;;;;;4995805;28;20095;-77
2022/08/18 05:03:11;;;;;;;6.47;4.47;;;;;;;;;;5006491;28;20406;-76
2022/08/18 05:05:37;;;;;;;5.10;4.03;;;;;;;;;;5009265;28;20042;-76
2022/08/18 05:08:03;;;;;;;4.88;3.50;;;;;;;;;;4989851;28;20046;-76
2022/08/18 05:10:29;;;;;;;4.55;3.90;;;;;;;;;;4988896;28;20148;-77
2022/08/18 05:12:56;;;;;;;6.57;3.70;;;;;;;;;;4987382;28;20053;-76
2022/08/18 05:15:22;;;;;;;7.05;4.20;;;;;;;;;;4995776;28;20077;-76
2022/08/18 05:17:48;;;;;;;6.10;4.07;;;;;;;;;;5001885;28;20056;-76
2022/08/18 05:20:15;;;;;;;7.55;4.50;;;;;;;;;;5008192;28;20052;-76
2022/08/18 05:22:42;;;;;;;6.22;4.10;;;;;;;;;;5004335;28;20045;-76
2022/08/18 05:25:09;;;;;;;7.03;4.72;;;;;;;;;;4990955;28;20066;-76
2022/08/18 05:27:36;;;;;;;7.28;4.88;;;;;;;;;;4989988;28;20097;-76
2022/08/18 05:30:03;;;;;;;8.77;4.60;;;;;;;;;;4995437;28;20053;-76
2022/08/18 05:32:32;;;;;;;5.13;4.63;;;;;;;;;;4999726;28;20548;-76
2022/08/18 05:34:59;;;;;;;6.82;4.63;;;;;;;;;;5007411;28;20058;-77
2022/08/18 05:37:33;;;;;;;7.38;4.63;;;;;;;;;;4991518;28;20072;-77
2022/08/18 05:40:01;;;;;;;6.97;4.20;;;;;;;;;;4994510;28;20129;-77
2022/08/18 05:42:35;;;;;;;6.60;4.07;;;;;;;;;;4994493;28;20081;-77
2022/08/18 05:45:02;;;;;;;4.20;3.50;;;;;;;;;;4981843;28;20058;-76
2022/08/18 05:47:30;;;;;;;3.90;3.25;;;;;;;;;;4991099;28;20058;-76
2022/08/18 05:49:57;;;;;;;5.13;3.53;;;;;;;;;;4993249;28;20080;-77
2022/08/18 05:52:34;;;;;;;5.05;3.50;;;;;;;;;;4993297;28;20487;-76
2022/08/18 05:57:53;;;;;;;5.63;3.67;;;;;;;;;;4993368;28;20054;-77
2022/08/18 06:00:22;;;;;;;4.43;3.45;;;;;;;;;;4985819;28;20085;-77
2022/08/18 06:03:01;;;;;;;4.32;3.53;;;;;;;;;;4997960;28;20121;-77
2022/08/18 06:05:32;;;;;;;3.92;3.53;;;;;;;;;;4999558;28;20101;-77
2022/08/18 06:08:11;;;;;;;4.78;3.80;;;;;;;;;;4987108;28;20054;-76
2022/08/18 06:10:40;;;;;;;7.07;4.05;;;;;;;;;;4985422;28;20054;-77
2022/08/18 06:13:08;;;;;;;5.18;3.78;;;;;;;;;;4995434;28;20161;-76
2022/08/18 06:15:53;;;;;;;7.53;4.13;;;;;;;;;;4992067;28;20173;-75
2022/08/18 06:18:26;;;;;;;6.88;3.92;;;;;;;;;;4987061;28;20040;-76
2022/08/18 06:21:10;;;;;;;9.25;4.00;;;;;;;;;;4987830;28;20050;-76
2022/08/18 06:23:45;;;;;;;6.05;3.55;;;;;;;;;;4994322;28;20192;-76
2022/08/18 06:26:24;;;;;;;6.57;3.90;;;;;;;;;;4973198;28;20083;-76
2022/08/18 06:28:53;;;;;;;5.72;3.30;;;;;;;;;;4997572;28;20056;-75
2022/08/18 06:31:35;;;;;;;5.57;3.33;;;;;;;;;;4988427;28;20127;-75
2022/08/18 06:34:01;;;;;;;5.43;3.40;;;;;;;;;;4973699;28;20094;-75
2022/08/18 06:36:39;;;;;;;5.22;3.13;;;;;;;;;;4973439;28;20490;-75
2022/08/18 06:39:11;;;;;;;5.35;3.08;;;;;;;;;;4983432;28;20046;-75
2022/08/18 06:41:48;;;;;;;3.05;2.70;;;;;;;;;;4983599;28;20043;-75
2022/08/18 06:44:37;;;;;;;5.50;3.03;;;;;;;;;;4999670;28;20383;-75
2022/08/18 06:47:21;;;;;;;7.28;3.40;;;;;;;;;;4991520;28;20124;-74
2022/08/18 06:50:17;;;;;;;4.45;2.95;;;;;;;;;;4991214;28;20054;-74
2022/08/18 06:52:54;;;;;;;4.30;2.72;;;;;;;;;;5020694;28;20403;-75
2022/08/18 06:55:31;;;;;;;3.90;3.08;;;;;;;;;;4989672;28;20128;-75
2022/08/18 06:58:01;;;;;;;7.47;2.90;;;;;;;;;;5001524;28;20112;-75
2022/08/18 07:00:29;;;;;;;6.88;3.13;;;;;;;;;;4982210;28;20051;-75
2022/08/18 07:03:06;;;;;;;5.15;2.90;;;;;;;;;;5004645;28;20050;-74
2022/08/18 07:05:34;;;;;;;4.03;3.05;;;;;;;;;;5000653;28;20050;-75
2022/08/18 07:08:11;;;;;;;8.52;2.97;;;;;;;;;;4997857;28;20100;-74
2022/08/18 07:10:48;;;;;;;7.43;3.20;;;;;;;;;;5004256;28;20456;-74
2022/08/18 07:13:18;;;;;;;4.50;3.28;;;;;;;;;;4995900;28;20057;-74
2022/08/18 07:15:44;;;;;;;7.82;2.83;;;;;;;;;;4996173;28;20074;-74
2022/08/18 07:18:11;;;;;;;6.72;3.17;;;;;;;;;;4992545;28;20463;-74
2022/08/18 07:20:42;;;;;;;6.70;3.30;;;;;;;;;;4995871;28;20053;-75
2022/08/18 07:23:10;;;;;;;6.32;3.00;;;;;;;;;;5000564;28;20038;-74
2022/08/18 07:25:42;;;;;;;5.47;3.00;;;;;;;;;;4987660;28;20502;-75
2022/08/18 07:28:26;;;;;;;5.85;3.00;;;;;;;;;;4981455;28;20055;-87
2022/08/18 07:30:53;;;;;;;8.93;3.78;;;;;;;;;;4977454;28;20062;-87
2022/08/18 07:33:22;;;;;;;5.28;2.92;;;;;;;;;;4985374;28;20042;-87
2022/08/18 07:35:56;;;;;;;7.50;3.72;;;;;;;;;;4986653;28;20130;-87
2022/08/18 07:38:41;;;;;;;6.30;3.20;;;;;;;;;;4994610;28;20073;-87
2022/08/18 07:41:26;;;;;;;6.35;3.25;;;;;;;;;;5006701;28;20115;-86
2022/08/18 07:44:15;;;;;;;10.23;3.08;;;;;;;;;;4987408;28;20084;-88
2022/08/18 07:46:51;;;;;;;6.72;3.08;;;;;;;;;;4988248;28;20490;-87
2022/08/18 07:49:21;;;;;;;5.95;3.25;;;;;;;;;;4980429;28;20054;-78
2022/08/18 07:51:50;;;;;;;5.93;2.60;;;;;;;;;;4974777;28;20050;-84
2022/08/18 07:54:25;;;;;;;6.90;3.08;;;;;;;;;;4982298;28;20035;-84
2022/08/18 07:57:07;;;;;;;6.13;2.90;;;;;;;;;;4977119;28;20102;-83
2022/08/18 07:59:33;;;;;;;4.22;2.42;;;;;;;;;;4981181;28;20082;-82
2022/08/18 08:01:59;;;;;;;4.90;2.60;;;;;;;;;;4977027;28;20038;-84
2022/08/18 08:04:25;;;;;;;3.80;2.80;;;;;;;;;;4981245;28;20553;-83
2022/08/18 08:07:01;;;;;;;3.40;2.38;;;;;;;;;;4924371;28;20061;-83
2022/08/18 08:09:30;;;;;;;2.70;2.20;;;;;;;;;;4979331;28;20061;-82
2022/08/18 08:11:58;;;;;;;3.47;2.00;;;;;;;;;;4979864;28;20038;-84
2022/08/18 08:14:34;;;;;;;3.10;2.50;;;;;;;;;;4986124;28;20041;-84
2022/08/18 08:17:03;;;;;;;4.85;2.20;;;;;;;;;;4995755;28;20043;-82
2022/08/18 08:19:50;;;;;;;6.85;2.50;;;;;;;;;;4994872;28;20053;-82
2022/08/18 08:22:39;;;;;;;5.65;2.45;;;;;;;;;;4993112;28;20042;-81
2022/08/18 08:25:08;;;;;;;6.32;2.83;;;;;;;;;;4978825;28;20055;-81
2022/08/18 08:27:46;;;;;;;4.03;2.40;;;;;;;;;;4998446;28;20073;-81
2022/08/18 08:30:14;;;;;;;6.97;2.30;;;;;;;;;;5000157;28;20083;-82
2022/08/18 08:32:51;;;;;;;2.78;2.35;;;;;;;;;;4987982;28;20130;-82
2022/08/18 08:35:33;;;;;;;2.85;2.30;;;;;;;;;;4975932;28;20495;-82
2022/08/18 08:38:02;;;;;;;4.70;2.50;;;;;;;;;;4992132;28;20071;-81
2022/08/18 08:40:33;;;;;;;3.83;2.72;;;;;;;;;;4993041;28;20047;-81
2022/08/18 08:42:59;;;;;;;4.10;2.78;;;;;;;;;;4993365;28;20438;-83
2022/08/18 08:45:32;;;;;;;3.08;2.60;;;;;;;;;;4981831;28;20495;-82
2022/08/18 08:48:20;;;;;;;3.97;2.80;;;;;;;;;;4988160;28;20494;-82
2022/08/18 08:50:49;;;;;;;3.08;2.53;;;;;;;;;;4981937;28;20100;-82
2022/08/18 08:53:25;;;;;;;4.70;2.65;;;;;;;;;;4986012;28;20046;-82
2022/08/18 08:55:53;;;;;;;7.13;3.38;;;;;;;;;;4989276;28;20054;-83
2022/08/18 08:58:22;;;;;;;4.60;2.80;;;;;;;;;;4989105;28;20189;-82
2022/08/18 09:00:49;;;;;;;4.03;2.70;;;;;;;;;;4980185;28;20122;-82
2022/08/18 09:03:23;;;;;;;4.93;2.55;;;;;;;;;;4986200;28;20030;-81
2022/08/18 09:05:49;;;;;;;3.80;2.45;;;;;;;;;;4980296;28;20050;-82
2022/08/18 09:08:35;;;;;;;3.42;2.40;;;;;;;;;;4978655;28;20500;-82
2022/08/18 09:11:18;;;;;;;3.40;2.40;;;;;;;;;;4983594;28;20050;-82
2022/08/18 09:14:09;;;;;;;4.65;2.50;;;;;;;;;;4980089;28;20089;-81
2022/08/18 09:16:48;;;;;;;3.28;2.53;;;;;;;;;;4980009;28;20050;-81
2022/08/18 09:19:26;;;;;;;5.00;2.20;;;;;;;;;;4978624;28;20159;-81
2022/08/18 09:21:58;;;;;;;6.25;2.28;;;;;;;;;;4979737;28;20061;-81
2022/08/18 09:24:29;;;;;;;8.75;2.60;;;;;;;;;;4983592;28;20042;-80
2022/08/18 09:27:04;;;;;;;5.97;2.58;;;;;;;;;;4983220;28;20046;-81
2022/08/18 09:29:39;;;;;;;6.10;2.40;;;;;;;;;;4982638;28;20050;-81
2022/08/18 09:32:21;;;;;;;5.78;2.40;;;;;;;;;;4987655;28;20094;-81
2022/08/18 09:35:00;;;;;;;3.53;2.35;;;;;;;;;;4986238;28;20109;-81
2022/08/18 09:37:30;;;;;;;3.08;2.00;;;;;;;;;;4986930;28;20053;-80
2022/08/18 09:42:56;;;;;;;5.78;2.20;;;;;;;;;;4984557;28;20054;-80
2022/08/18 09:45:32;;;;;;;4.18;2.20;;;;;;;;;;4980684;28;20402;-80
2022/08/18 09:48:04;;;;;;;3.70;2.13;;;;;;;;;;4982796;28;20054;-81
2022/08/18 09:50:50;;;;;;;3.63;2.10;;;;;;;;;;4985929;28;20050;-81
2022/08/18 09:53:36;;;;;;;4.50;2.20;;;;;;;;;;4984635;28;20053;-81
2022/08/18 09:56:02;;;;;;;4.45;2.30;;;;;;;;;;4981038;28;20422;-80
2022/08/18 09:58:28;;;;;;;5.18;2.22;;;;;;;;;;4983376;28;20058;-81
2022/08/18 10:01:16;;;;;;;4.57;2.13;;;;;;;;;;4976945;28;20544;-82
2022/08/18 10:03:42;;;;;;;3.30;2.08;;;;;;;;;;4982881;28;20060;-81
2022/08/18 10:06:13;;;;;;;4.45;2.35;;;;;;;;;;4984165;28;20077;-80
2022/08/18 10:08:49;;;;;;;3.35;2.47;;;;;;;;;;4992912;28;20038;-82
2022/08/18 10:11:25;;;;;;;3.15;2.20;;;;;;;;;;4998255;28;20042;-81
2022/08/18 10:14:10;;;;;;;4.50;2.40;;;;;;;;;;5004494;28;20073;-80
2022/08/18 10:16:47;;;;;;;3.95;2.10;;;;;;;;;;4975944;28;20085;-80
2022/08/18 10:19:33;;;;;;;2.67;1.83;;;;;;;;;;4974745;28;20046;-81
2022/08/18 10:21:59;;;;;;;3.47;2.00;;;;;;;;;;4972601;28;20198;-82
2022/08/18 10:24:31;;;;;;;3.08;2.17;;;;;;;;;;4981524;28;20903;-83
2022/08/18 10:26:58;;;;;;;3.97;2.22;;;;;;;;;;4970154;28;20050;-81
2022/08/18 10:29:24;;;;;;;3.67;1.92;;;;;;;;;;4967652;28;20046;-80
2022/08/18 10:31:59;;;;;;;2.95;2.20;;;;;;;;;;4972140;28;20050;-80
2022/08/18 10:34:31;;;;;;;2.95;2.00;;;;;;;;;;4980438;28;21908;-80
2022/08/18 10:37:02;;;;;;;4.65;1.90;;;;;;;;;;4979326;28;20478;-80
2022/08/18 10:39:43;;;;;;;2.88;2.00;;;;;;;;;;4980129;28;20058;-81
2022/08/18 10:42:18;;;;;;;2.30;2.10;;;;;;;;;;4990476;28;20073;-80
2022/08/18 10:44:44;;;;;;;3.83;2.25;;;;;;;;;;4991296;28;20058;-82
2022/08/18 10:47:19;;;;;;;3.45;1.92;;;;;;;;;;4984905;28;20108;-82
2022/08/18 10:49:48;;;;;;;2.75;1.90;;;;;;;;;;4978421;28;20470;-82
2022/08/18 10:52:23;;;;;;;2.17;1.80;;;;;;;;;;4970162;28;20058;-84
2022/08/18 10:54:49;;;;;;;3.60;1.95;;;;;;;;;;4972943;28;20317;-82
2022/08/18 10:57:19;;;;;;;3.58;1.95;;;;;;;;;;4975139;28;20156;-82
2022/08/18 10:59:59;;;;;;;2.97;1.98;;;;;;;;;;4972991;28;20422;-83
2022/08/18 11:02:45;;;;;;;2.58;1.98;;;;;;;;;;4979143;28;20042;-82
2022/08/18 11:05:16;;;;;;;3.08;2.08;;;;;;;;;;4977703;28;20048;-81
2022/08/18 11:07:46;;;;;;;4.45;2.22;;;;;;;;;;4970727;28;20054;-82
2022/08/18 11:10:19;;;;;;;4.40;2.20;;;;;;;;;;4973503;28;20375;-83
2022/08/18 11:13:04;;;;;;;2.88;2.22;;;;;;;;;;4979784;28;20483;-82
2022/08/18 11:15:43;;;;;;;3.22;1.98;;;;;;;;;;4971777;28;20050;-82
2022/08/18 11:18:31;;;;;;;2.10;1.90;;;;;;;;;;4974281;28;20044;-82
2022/08/18 11:21:16;;;;;;;2.40;2.10;;;;;;;;;;4971867;28;20042;-83
2022/08/18 11:23:42;;;;;;;1.98;1.88;;;;;;;;;;4967745;28;20081;-83
2022/08/18 11:26:17;;;;;;;2.40;2.20;;;;;;;;;;4969492;28;20153;-82
2022/08/18 11:28:43;;;;;;;2.13;1.92;;;;;;;;;;4970152;28;20051;-83
2022/08/18 11:31:09;;;;;;;2.22;1.90;;;;;;;;;;4975001;28;20054;-82
2022/08/18 11:33:39;;;;;;;2.20;2.00;;;;;;;;;;4978623;28;20049;-82
2022/08/18 11:36:05;;;;;;;3.00;2.70;;;;;;;;;;4977552;28;20042;-82
2022/08/18 11:38:32;;;;;;;2.00;1.90;;;;;;;;;;4980616;28;20058;-82
2022/08/18 11:41:14;;;;;;;2.22;2.03;;;;;;;;;;4973450;28;20133;-82
2022/08/18 11:43:41;;;;;;;2.85;2.00;;;;;;;;;;4980062;28;20132;-82
2022/08/18 11:46:26;;;;;;;3.22;1.92;;;;;;;;;;4985667;28;20046;-83
2022/08/18 11:48:52;;;;;;;2.42;1.90;;;;;;;;;;4989949;28;20042;-83
2022/08/18 11:51:20;;;;;;;2.13;1.90;;;;;;;;;;5010782;28;20060;-82
2022/08/18 11:53:46;;;;;;;2.58;2.15;;;;;;;;;;4995049;28;20042;-84
2022/08/18 11:56:27;;;;;;;3.00;2.25;;;;;;;;;;4975418;28;20042;-83
2022/08/18 11:59:01;;;;;;;4.10;2.40;;;;;;;;;;4971618;28;20042;-82
2022/08/18 12:01:33;;;;;;;2.65;2.33;;;;;;;;;;4976701;28;20046;-84
2022/08/18 12:04:07;;;;;;;2.55;2.30;;;;;;;;;;4973107;28;20053;-83
2022/08/18 12:06:34;;;;;;;2.08;1.90;;;;;;;;;;4973429;28;20379;-84
2022/08/18 12:09:17;;;;;;;2.20;2.00;;;;;;;;;;4973684;28;20108;-84
2022/08/18 12:11:49;;;;;;;1.95;1.85;;;;;;;;;;4973074;28;20089;-83
2022/08/18 12:14:17;;;;;;;2.50;2.30;;;;;;;;;;4972460;28;20117;-83
2022/08/18 12:16:43;;;;;;;2.88;2.35;;;;;;;;;;4972616;28;20297;-83
2022/08/18 12:19:11;;;;;;;3.53;2.20;;;;;;;;;;4974490;28;20406;-83
2022/08/18 12:21:50;;;;;;;2.22;2.03;;;;;;;;;;4974808;28;20042;-83
2022/08/18 12:24:21;;;;;;;2.40;2.20;;;;;;;;;;4988291;28;20053;-83
2022/08/18 12:26:47;;;;;;;4.32;2.30;;;;;;;;;;4975184;28;20063;-83
2022/08/18 12:29:14;;;;;;;3.15;2.05;;;;;;;;;;4977572;28;20078;-83
2022/08/18 12:31:40;;;;;;;2.35;1.90;;;;;;;;;;4973162;28;20049;-82
2022/08/18 12:34:06;;;;;;;2.88;2.13;;;;;;;;;;4973886;28;20050;-83
2022/08/18 12:36:33;;;;;;;2.95;2.20;;;;;;;;;;4979290;28;20038;-83
2022/08/18 12:38:58;;;;;;;2.33;1.90;;;;;;;;;;4972407;28;20462;-84
2022/08/18 12:41:24;;;;;;;3.95;1.92;;;;;;;;;;4974385;28;20047;-83
2022/08/18 12:43:52;;;;;;;2.10;1.90;;;;;;;;;;4976001;28;20069;-83
2022/08/18 12:46:18;;;;;;;2.00;1.80;;;;;;;;;;5002876;28;20112;-84
2022/08/18 12:48:44;;;;;;;3.92;1.77;;;;;;;;;;4974473;28;20442;-84
2022/08/18 12:51:12;;;;;;;2.55;1.70;;;;;;;;;;4979336;28;20073;-84
2022/08/18 12:53:38;;;;;;;4.32;2.03;;;;;;;;;;4977438;28;20057;-84
2022/08/18 12:56:17;;;;;;;2.33;1.70;;;;;;;;;;4982307;28;20369;-84
2022/08/18 12:58:43;;;;;;;2.40;1.50;;;;;;;;;;4978970;28;20070;-84
2022/08/18 13:01:10;;;;;;;3.30;2.15;;;;;;;;;;4991646;28;20070;-83
2022/08/18 13:03:35;;;;;;;3.05;2.00;;;;;;;;;;4973930;28;20130;-82
2022/08/18 13:06:01;;;;;;;2.38;1.90;;;;;;;;;;4980270;28;20125;-83
2022/08/18 13:08:27;;;;;;;1.52;1.42;;;;;;;;;;4972988;28;20274;-83
2022/08/18 13:10:53;;;;;;;2.47;1.67;;;;;;;;;;4980462;28;20035;-82
2022/08/18 13:13:20;;;;;;;2.17;1.63;;;;;;;;;;4974411;28;20043;-83
2022/08/18 13:15:47;;;;;;;2.45;1.50;;;;;;;;;;4976408;28;20046;-83
2022/08/18 13:18:13;;;;;;;1.77;1.65;;;;;;;;;;4971981;28;20508;-82
2022/08/18 13:20:40;;;;;;;2.67;1.88;;;;;;;;;;4977857;28;20049;-84
2022/08/18 13:23:06;;;;;;;3.17;1.90;;;;;;;;;;4974910;28;20050;-82
2022/08/18 13:25:32;;;;;;;2.80;1.77;;;;;;;;;;4974833;28;20046;-82
2022/08/18 13:27:58;;;;;;;1.70;1.60;;;;;;;;;;4970993;28;20066;-83
2022/08/18 13:30:24;;;;;;;1.83;1.73;;;;;;;;;;4979994;28;20092;-82
2022/08/18 13:32:51;;;;;;;2.83;1.90;;;;;;;;;;4972406;28;20093;-82
2022/08/18 13:35:17;;;;;;;2.00;1.83;;;;;;;;;;4970948;28;20043;-83
2022/08/18 13:37:43;;;;;;;2.10;1.80;;;;;;;;;;4975859;28;20043;-83
2022/08/18 13:40:12;;;;;;;2.15;1.60;;;;;;;;;;4980642;28;20045;-83
2022/08/18 13:42:47;;;;;;;1.80;1.70;;;;;;;;;;4978106;28;20058;-82
2022/08/18 13:45:13;;;;;;;2.15;1.95;;;;;;;;;;4975159;28;20043;-82
2022/08/18 13:47:39;;;;;;;2.45;1.80;;;;;;;;;;4979441;28;20054;-83
2022/08/18 13:50:06;;;;;;;1.90;1.75;;;;;;;;;;4974666;28;20051;-83
2022/08/18 13:52:32;;;;;;;1.90;1.60;;;;;;;;;;4974072;28;20055;-81
2022/08/18 13:54:58;;;;;;;3.97;1.52;;;;;;;;;;4984564;28;20055;-82
2022/08/18 13:57:26;;;;;;;3.45;1.73;;;;;;;;;;4979977;28;20068;-85
2022/08/18 13:59:52;;;;;;;1.85;1.60;;;;;;;;;;4974080;28;20491;-84
2022/08/18 14:02:18;;;;;;;1.77;1.60;;;;;;;;;;4975222;28;20058;-84
2022/08/18 14:04:44;;;;;;;3.60;1.50;;;;;;;;;;4969811;28;20046;-85
2022/08/18 14:07:12;;;;;;;1.83;1.73;;;;;;;;;;4974849;28;20481;-83
2022/08/18 14:09:38;;;;;;;1.70;1.60;;;;;;;;;;4971366;28;20527;-83
2022/08/18 14:12:05;;;;;;;1.70;1.60;;;;;;;;;;4974890;28;20439;-84
2022/08/18 14:14:32;;;;;;;4.10;2.85;;;;;;;;;;4972334;28;20403;-83
2022/08/18 14:16:58;;;;;;;1.85;1.70;;;;;;;;;;4995111;28;20061;-83
2022/08/18 14:27:38;;;;;;;1.50;1.40;;;;;;;;;;4997275;28;20109;-82
2022/08/18 14:30:06;;;;;;;1.63;1.50;;;;;;;;;;4989777;28;20077;-82
2022/08/18 14:32:32;;;;;;;1.42;1.30;;;;;;;;;;4991188;28;20050;-82
2022/08/18 14:34:59;;;;;;;4.47;1.60;;;;;;;;;;4991059;28;20529;-81
2022/08/18 14:37:25;;;;;;;1.92;1.50;;;;;;;;;;4989044;28;20078;-80
2022/08/18 14:39:52;;;;;;;2.97;1.58;;;;;;;;;;4984479;28;20060;-81
2022/08/18 14:42:19;;;;;;;1.90;1.45;;;;;;;;;;4983085;28;20062;-77
2022/08/18 14:44:46;;;;;;;1.98;1.35;;;;;;;;;;4973070;28;20050;-79
2022/08/18 14:47:12;;;;;;;1.50;1.40;;;;;;;;;;4987932;28;20045;-78
2022/08/18 14:49:38;;;;;;;3.28;1.50;;;;;;;;;;4979927;28;20297;-81
2022/08/18 14:52:09;;;;;;;1.67;1.30;;;;;;;;;;4979894;28;20051;-82
2022/08/18 14:54:35;;;;;;;2.10;1.42;;;;;;;;;;4982001;28;20088;-81
2022/08/18 14:57:01;;;;;;;2.75;1.50;;;;;;;;;;4981840;28;20542;-82
2022/08/18 14:59:29;;;;;;;3.50;1.30;;;;;;;;;;5003465;28;20049;-82
2022/08/18 15:01:55;;;;;;;1.20;1.10;;;;;;;;;;4989238;28;20050;-81
2022/08/18 15:04:21;;;;;;;1.70;1.10;;;;;;;;;;4995818;28;20177;-82
2022/08/18 15:06:48;;;;;;;1.45;1.27;;;;;;;;;;4991669;28;20835;-81
2022/08/18 15:09:14;;;;;;;1.58;1.20;;;;;;;;;;4983125;28;20054;-82
2022/08/18 15:11:40;;;;;;;1.52;1.20;;;;;;;;;;4969951;28;20050;-84
2022/08/18 15:14:07;;;;;;;2.22;1.17;;;;;;;;;;4982543;28;20042;-84
2022/08/18 15:16:33;;;;;;;3.25;1.20;;;;;;;;;;4975447;28;20059;-82
2022/08/18 15:19:00;;;;;;;1.73;1.20;;;;;;;;;;4986573;28;20499;-83
2022/08/18 15:26:57;;;;;;;2.05;1.23;;;;;;;;;;4984837;28;20542;-83